Time;durP1;ratioP1;P1;durP2;ratioP2;P2;SDS_P1;SDS_P2;PMS_P1;PMS_P2;Temp;Humidity;BMP_temperature;BMP_pressure;BME280_temperature;BME280_humidity;BME280_pressure;Samples;Min_cycle;Max_cycle;Signal;HPM_P1;HPM_P2
2021/01/07 00:01:25;;;;;;;25.25;13.50;;;;;;;1.71;86.09;99667.95;124829;1143;22684;-63
2021/01/07 00:03:52;;;;;;;23.33;12.63;;;;;;;1.69;86.44;99656.57;124679;1142;23768;-64
2021/01/07 00:06:19;;;;;;;23.73;14.00;;;;;;;1.70;86.50;99667.13;124537;1144;22795;-63
2021/01/07 00:08:47;;;;;;;35.83;18.07;;;;;;;1.71;86.61;99659.89;124710;1144;22767;-63
2021/01/07 00:11:14;;;;;;;36.27;18.10;;;;;;;1.71;86.57;99646.47;124605;1143;22646;-63
2021/01/07 00:13:41;;;;;;;44.87;22.70;;;;;;;1.72;86.57;99624.78;124776;1142;22783;-63
2021/01/07 00:16:09;;;;;;;36.50;17.30;;;;;;;1.73;87.21;99630.98;124568;1143;23299;-63
2021/01/07 00:18:36;;;;;;;18.03;10.70;;;;;;;1.72;86.45;99637.38;124791;1144;22739;-63
2021/01/07 00:21:04;;;;;;;30.27;16.00;;;;;;;1.71;86.68;99635.72;124705;1143;22679;-63
2021/01/07 00:23:31;;;;;;;28.17;15.17;;;;;;;1.67;86.39;99629.91;124787;1144;22672;-63
2021/01/07 00:26:00;;;;;;;43.30;23.60;;;;;;;1.66;87.20;99630.94;124591;1144;22767;-64
2021/01/07 00:28:27;;;;;;;34.75;18.75;;;;;;;1.64;86.81;99624.09;124762;1142;22761;-64
2021/01/07 00:30:54;;;;;;;28.27;15.13;;;;;;;1.62;86.78;99618.09;124494;1142;23302;-64
2021/01/07 00:33:22;;;;;;;21.53;11.50;;;;;;;1.62;86.99;99626.98;124706;1143;22676;-63
2021/01/07 00:35:49;;;;;;;21.35;11.15;;;;;;;1.64;86.93;99629.47;124624;1143;22660;-63
2021/01/07 00:38:17;;;;;;;21.97;11.87;;;;;;;1.64;86.44;99634.84;124814;1142;22695;-63
2021/01/07 00:40:44;;;;;;;20.15;11.65;;;;;;;1.66;86.62;99636.30;124529;1144;22785;-63
2021/01/07 00:43:12;;;;;;;19.40;11.15;;;;;;;1.68;86.89;99638.80;124810;1142;23434;-63
2021/01/07 00:45:39;;;;;;;24.07;12.63;;;;;;;1.70;87.02;99634.06;124628;1143;22665;-63
2021/01/07 00:48:07;;;;;;;25.50;13.50;;;;;;;1.72;87.82;99632.84;124470;1144;23694;-63
2021/01/07 00:50:34;;;;;;;40.07;20.90;;;;;;;1.77;87.69;99621.48;124663;1144;22726;-63
2021/01/07 00:53:02;;;;;;;25.90;14.20;;;;;;;1.81;87.92;99613.86;124571;1143;22657;-63
2021/01/07 00:55:30;;;;;;;36.85;18.95;;;;;;;1.82;87.07;99612.84;124626;1143;22694;-63
2021/01/07 00:58:02;;;;;;;27.63;15.63;;;;;;;1.84;87.89;99613.47;124482;1144;22711;-63
2021/01/07 01:00:29;;;;;;;30.30;14.75;;;;;;;1.84;87.25;99613.47;124769;1143;22771;-63
2021/01/07 01:02:56;;;;;;;28.50;15.03;;;;;;;1.82;87.34;99619.03;124559;1143;22670;-63
2021/01/07 01:07:49;;;;;;;26.33;13.67;;;;;;;1.83;87.53;99604.58;120079;1148;22913;-62
2021/01/07 01:10:17;;;;;;;26.85;15.30;;;;;;;1.81;87.33;99603.95;124373;1148;22664;-63
2021/01/07 01:12:44;;;;;;;34.37;18.13;;;;;;;1.81;87.65;99601.26;124291;1146;22787;-63
2021/01/07 01:15:18;;;;;;;28.90;16.33;;;;;;;1.82;87.10;99596.72;124247;1147;22751;-63
2021/01/07 01:17:46;;;;;;;28.70;15.30;;;;;;;1.77;87.26;99587.39;124325;1146;23410;-63
2021/01/07 01:20:14;;;;;;;28.93;15.57;;;;;;;1.81;87.54;99593.20;124312;1147;23819;-63
2021/01/07 01:22:41;;;;;;;31.63;16.90;;;;;;;1.82;87.39;99596.72;124340;1146;23552;-63
2021/01/07 01:25:10;;;;;;;29.60;15.93;;;;;;;1.83;88.02;99595.69;124167;1147;22680;-63
2021/01/07 01:27:40;;;;;;;33.40;17.83;;;;;;;1.83;87.56;99593.84;124273;1146;22743;-63
2021/01/07 01:30:09;;;;;;;31.30;17.40;;;;;;;1.83;87.24;99588.46;124191;1147;22762;-63
2021/01/07 01:32:38;;;;;;;30.50;16.77;;;;;;;1.83;88.03;99577.72;124217;1147;22934;-63
2021/01/07 01:35:07;;;;;;;29.00;17.30;;;;;;;1.83;87.44;99576.89;124335;1147;22695;-63
2021/01/07 01:37:35;;;;;;;30.85;18.45;;;;;;;1.82;87.91;99575.23;124288;1146;24165;-63
2021/01/07 01:40:03;;;;;;;31.60;17.77;;;;;;;1.82;87.44;99569.86;124088;1147;22753;-63
2021/01/07 01:42:31;;;;;;;33.57;17.27;;;;;;;1.83;87.28;99566.14;124249;1147;23280;-63
2021/01/07 01:44:58;;;;;;;39.75;18.40;;;;;;;1.86;88.04;99571.12;124224;1145;22736;-63
2021/01/07 01:47:25;;;;;;;37.47;18.77;;;;;;;1.90;87.52;99557.06;124268;1146;22740;-63
2021/01/07 01:49:53;;;;;;;32.03;17.60;;;;;;;1.93;87.34;99553.16;124167;1148;22684;-63
2021/01/07 01:52:22;;;;;;;31.93;17.63;;;;;;;1.94;87.90;99550.27;124422;1146;22668;-63
2021/01/07 01:54:49;;;;;;;34.00;17.50;;;;;;;1.97;87.67;99552.55;124134;1146;22696;-63
2021/01/07 01:57:18;;;;;;;26.97;15.77;;;;;;;1.96;87.54;99539.32;124383;1148;22788;-63
2021/01/07 01:59:46;;;;;;;28.77;15.87;;;;;;;1.93;87.62;99531.66;124220;1148;22791;-63
2021/01/07 02:02:14;;;;;;;29.23;16.47;;;;;;;1.92;87.82;99525.45;124231;1146;22772;-63
2021/01/07 02:04:43;;;;;;;55.83;32.90;;;;;;;1.92;88.00;99520.08;124219;1146;22672;-63
2021/01/07 02:07:15;;;;;;;39.87;21.07;;;;;;;1.88;87.84;99505.39;124244;1147;22836;-63
2021/01/07 02:09:43;;;;;;;33.93;18.33;;;;;;;1.87;87.67;99514.52;124089;1148;22705;-63
2021/01/07 02:12:11;;;;;;;33.87;17.60;;;;;;;1.81;87.09;99506.41;124336;1146;23369;-63
2021/01/07 02:14:40;;;;;;;32.10;17.00;;;;;;;1.80;87.68;99499.38;124223;1146;22705;-63
2021/01/07 02:17:08;;;;;;;27.63;15.70;;;;;;;1.81;87.50;99498.36;124407;1148;22676;-63
2021/01/07 02:19:36;;;;;;;27.90;15.50;;;;;;;1.81;87.88;99490.30;124201;1146;25770;-63
2021/01/07 02:22:04;;;;;;;29.40;16.67;;;;;;;1.81;87.62;99491.13;124491;1147;22687;-63
2021/01/07 02:24:32;;;;;;;29.70;16.03;;;;;;;1.80;87.67;99488.64;124315;1147;22678;-63
2021/01/07 02:27:06;;;;;;;30.07;16.87;;;;;;;1.81;87.86;99490.30;120796;1148;23205;-62
2021/01/07 02:29:47;;;;;;;28.50;15.75;;;;;;;1.81;87.84;99479.55;124324;1147;22679;-63
2021/01/07 02:32:15;;;;;;;30.97;17.70;;;;;;;1.78;87.74;99473.55;124190;1147;22711;-63
2021/01/07 02:34:42;;;;;;;27.67;16.03;;;;;;;1.80;88.22;99473.35;124343;1145;22757;-63
2021/01/07 02:37:09;;;;;;;31.13;17.10;;;;;;;1.80;87.77;99473.35;124160;1146;22674;-63
2021/01/07 02:39:37;;;;;;;35.53;17.83;;;;;;;1.81;88.13;99466.13;124453;1147;22703;-63
2021/01/07 02:42:04;;;;;;;27.95;16.65;;;;;;;1.78;88.44;99454.75;123995;1149;22781;-63
2021/01/07 02:44:32;;;;;;;27.00;15.75;;;;;;;1.76;87.58;99459.49;124388;1147;22676;-63
2021/01/07 02:46:59;;;;;;;28.60;16.00;;;;;;;1.74;87.26;99458.03;124046;1148;22743;-64
2021/01/07 02:49:27;;;;;;;27.73;15.60;;;;;;;1.69;87.50;99458.66;124198;1147;23320;-63
2021/01/07 02:51:54;;;;;;;30.57;15.87;;;;;;;1.68;88.35;99451.63;124134;1147;22748;-64
2021/01/07 02:54:22;;;;;;;31.03;16.53;;;;;;;1.67;88.25;99449.15;124201;1147;23559;-63
2021/01/07 02:56:49;;;;;;;26.20;14.90;;;;;;;1.65;88.15;99441.30;120963;1148;27299;-62
2021/01/07 02:59:17;;;;;;;32.55;16.70;;;;;;;1.65;88.24;99445.83;119634;1148;26399;-62
2021/01/07 03:01:44;;;;;;;32.05;16.45;;;;;;;1.64;87.70;99445.00;124162;1146;22816;-63
2021/01/07 03:04:12;;;;;;;36.70;17.13;;;;;;;1.66;88.48;99436.75;124385;1147;22696;-63
2021/01/07 03:06:39;;;;;;;33.05;17.30;;;;;;;1.67;87.86;99431.18;124147;1145;23447;-63
2021/01/07 03:09:07;;;;;;;35.70;17.27;;;;;;;1.70;87.96;99436.16;124353;1147;22775;-63
2021/01/07 03:11:35;;;;;;;26.10;15.93;;;;;;;1.74;88.56;99433.86;124182;1147;22665;-63
2021/01/07 03:14:02;;;;;;;31.30;17.90;;;;;;;1.75;87.47;99430.98;124373;1147;22872;-63
2021/01/07 03:16:30;;;;;;;35.03;16.47;;;;;;;1.75;88.64;99414.03;124296;1147;22803;-63
2021/01/07 03:18:57;;;;;;;29.37;15.23;;;;;;;1.74;88.01;99412.38;124390;1147;22674;-63
2021/01/07 03:21:25;;;;;;;25.43;15.27;;;;;;;1.71;87.54;99400.21;124208;1147;24210;-63
2021/01/07 03:23:52;;;;;;;25.47;14.47;;;;;;;1.67;87.31;99396.27;124130;1147;22703;-63
2021/01/07 03:26:20;;;;;;;25.13;11.80;;;;;;;1.64;87.82;99404.72;124303;1147;22770;-63
2021/01/07 03:28:47;;;;;;;27.87;13.27;;;;;;;1.61;88.53;99398.92;124278;1146;22710;-63
2021/01/07 03:31:15;;;;;;;26.97;12.93;;;;;;;1.61;87.85;99402.44;124425;1147;22740;-63
2021/01/07 03:33:43;;;;;;;25.50;12.80;;;;;;;1.63;88.00;99395.02;124145;1147;22711;-63
2021/01/07 03:36:10;;;;;;;22.60;13.55;;;;;;;1.67;88.07;99390.90;124474;1146;22754;-63
2021/01/07 03:38:37;;;;;;;21.40;13.27;;;;;;;1.71;88.33;99396.70;124231;1145;23426;-63
2021/01/07 03:41:05;;;;;;;25.40;13.95;;;;;;;1.73;88.11;99395.44;124433;1147;22694;-63
2021/01/07 03:43:32;;;;;;;29.65;18.55;;;;;;;1.72;87.80;99384.92;124218;1147;22686;-63
2021/01/07 03:45:59;;;;;;;29.73;18.60;;;;;;;1.72;87.92;99383.06;124148;1148;22692;-63
2021/01/07 03:48:27;;;;;;;43.73;22.73;;;;;;;1.71;88.56;99378.72;124212;1147;23650;-64
2021/01/07 03:50:54;;;;;;;30.00;18.65;;;;;;;1.70;88.57;99370.88;124209;1147;22698;-64
2021/01/07 03:53:22;;;;;;;29.60;15.70;;;;;;;1.68;88.35;99365.70;124073;1147;22678;-63
2021/01/07 03:55:49;;;;;;;48.45;22.65;;;;;;;1.66;88.29;99374.98;124291;1148;22678;-63
2021/01/07 03:58:16;;;;;;;68.60;29.80;;;;;;;1.64;87.96;99360.94;124212;1148;22708;-63
2021/01/07 04:00:44;;;;;;;35.57;19.13;;;;;;;1.64;88.04;99372.50;124186;1148;22745;-63
2021/01/07 04:03:12;;;;;;;29.60;16.25;;;;;;;1.65;88.49;99355.36;124204;1148;22794;-63
2021/01/07 04:05:39;;;;;;;24.03;16.23;;;;;;;1.64;88.52;99368.98;124256;1148;22705;-63
2021/01/07 04:08:06;;;;;;;43.65;20.35;;;;;;;1.64;88.80;99369.81;124313;1147;22818;-63
2021/01/07 04:10:34;;;;;;;32.83;14.47;;;;;;;1.66;88.10;99359.70;124139;1147;22775;-63
2021/01/07 04:13:02;;;;;;;21.43;12.90;;;;;;;1.69;88.63;99355.78;124270;1146;22780;-63
2021/01/07 04:15:29;;;;;;;45.97;21.23;;;;;;;1.71;88.25;99359.92;124138;1147;23389;-63
2021/01/07 04:17:57;;;;;;;41.57;20.60;;;;;;;1.74;88.17;99342.55;124261;1146;22718;-63
2021/01/07 04:20:24;;;;;;;20.10;13.57;;;;;;;1.71;88.26;99346.50;124254;1146;22704;-63
2021/01/07 04:22:51;;;;;;;49.67;26.47;;;;;;;1.69;89.01;99353.93;124238;1148;22679;-63
2021/01/07 04:25:19;;;;;;;28.17;15.87;;;;;;;1.67;88.26;99355.16;124103;1148;22772;-63
2021/01/07 04:27:46;;;;;;;30.73;16.27;;;;;;;1.68;88.43;99354.95;124336;1146;22779;-63
2021/01/07 04:30:14;;;;;;;30.07;15.97;;;;;;;1.70;88.35;99363.64;124123;1147;23485;-63
2021/01/07 04:32:41;;;;;;;24.57;14.33;;;;;;;1.70;88.47;99365.50;124232;1147;22691;-63
2021/01/07 04:35:10;;;;;;;19.73;12.50;;;;;;;1.69;88.23;99361.98;124390;1145;22664;-62
2021/01/07 04:37:37;;;;;;;42.87;19.07;;;;;;;1.68;88.87;99362.19;124441;1146;22761;-61
2021/01/07 04:40:05;;;;;;;20.73;12.97;;;;;;;1.69;88.43;99364.67;124417;1145;27615;-61
2021/01/07 04:42:33;;;;;;;21.40;13.95;;;;;;;1.69;88.03;99366.53;124585;1145;22673;-61
2021/01/07 04:45:02;;;;;;;28.83;14.47;;;;;;;1.70;88.38;99373.55;124394;1145;22676;-61
2021/01/07 04:47:29;;;;;;;47.90;24.17;;;;;;;1.73;88.61;99371.27;124392;1146;22776;-61
2021/01/07 04:49:57;;;;;;;25.67;13.93;;;;;;;1.74;88.74;99362.17;124506;1145;22779;-61
2021/01/07 04:52:24;;;;;;;42.30;20.80;;;;;;;1.75;88.46;99358.46;124282;1145;22710;-61
2021/01/07 04:54:52;;;;;;;24.33;14.50;;;;;;;1.75;88.64;99347.72;124424;1146;22698;-61
2021/01/07 04:57:20;;;;;;;22.63;13.93;;;;;;;1.75;88.30;99347.72;124349;1146;22705;-61
2021/01/07 04:59:48;;;;;;;23.85;14.50;;;;;;;1.73;88.94;99339.03;124469;1146;23559;-61
2021/01/07 05:02:15;;;;;;;42.70;21.90;;;;;;;1.72;88.37;99334.73;124304;1146;22705;-61
2021/01/07 05:04:52;;;;;;;37.95;20.35;;;;;;;1.72;88.62;99325.84;124465;1146;22662;-61
2021/01/07 05:07:20;;;;;;;30.85;18.70;;;;;;;1.71;89.15;99321.50;120370;1146;23401;-61
2021/01/07 05:09:48;;;;;;;20.25;13.05;;;;;;;1.70;88.54;99319.84;124446;1146;24125;-61
2021/01/07 05:12:15;;;;;;;24.73;14.47;;;;;;;1.69;88.61;99326.25;124326;1146;22666;-61
2021/01/07 05:14:47;;;;;;;21.60;12.83;;;;;;;1.67;89.20;99321.08;124558;1145;23802;-61
2021/01/07 05:17:16;;;;;;;23.20;12.45;;;;;;;1.63;88.71;99319.83;124459;1145;22669;-61
2021/01/07 05:19:43;;;;;;;52.85;24.45;;;;;;;1.63;88.54;99317.14;124445;1145;22679;-62
2021/01/07 05:22:11;;;;;;;25.57;14.03;;;;;;;1.62;88.92;99315.48;124316;1146;22686;-61
2021/01/07 05:24:39;;;;;;;20.67;12.23;;;;;;;1.61;88.71;99305.77;124446;1146;22875;-61
2021/01/07 05:27:08;;;;;;;23.53;13.03;;;;;;;1.60;88.77;99303.30;124243;1145;23350;-61
2021/01/07 05:29:40;;;;;;;29.47;16.20;;;;;;;1.59;89.13;99304.32;124528;1146;22698;-61
2021/01/07 05:32:07;;;;;;;17.23;11.07;;;;;;;1.59;89.19;99305.15;124284;1145;22798;-61
2021/01/07 05:34:50;;;;;;;18.83;11.87;;;;;;;1.60;88.63;99306.80;124648;1143;22695;-61
2021/01/07 05:37:18;;;;;;;16.90;11.40;;;;;;;1.62;89.14;99299.37;124374;1144;22899;-62
2021/01/07 05:39:49;;;;;;;14.95;9.65;;;;;;;1.61;89.27;99289.66;124377;1145;23505;-61
2021/01/07 05:42:17;;;;;;;20.73;12.47;;;;;;;1.62;89.80;99290.49;124363;1145;22656;-61
2021/01/07 05:44:45;;;;;;;19.55;11.90;;;;;;;1.63;89.82;99297.52;124500;1144;23392;-61
2021/01/07 05:47:29;;;;;;;18.60;11.63;;;;;;;1.63;89.46;99292.97;124470;1144;24149;-61
2021/01/07 05:49:56;;;;;;;15.00;9.63;;;;;;;1.63;89.81;99289.46;124582;1143;22681;-61
2021/01/07 05:52:29;;;;;;;16.70;10.83;;;;;;;1.62;89.46;99288.63;124601;1144;23849;-61
2021/01/07 05:54:59;;;;;;;15.37;10.47;;;;;;;1.63;88.85;99287.60;124601;1143;22673;-61
2021/01/07 05:57:28;;;;;;;16.57;10.33;;;;;;;1.65;90.27;99293.59;124440;1145;22655;-61
2021/01/07 05:59:57;;;;;;;13.75;9.55;;;;;;;1.67;89.33;99285.34;124365;1144;22716;-61
2021/01/07 06:02:24;;;;;;;14.23;9.57;;;;;;;1.68;89.25;99281.62;124473;1146;22752;-61
2021/01/07 06:04:52;;;;;;;13.63;9.70;;;;;;;1.68;89.47;99278.94;124354;1143;22730;-61
2021/01/07 06:07:20;;;;;;;12.25;8.90;;;;;;;1.70;90.15;99285.76;124503;1145;23621;-61
2021/01/07 06:09:48;;;;;;;17.87;10.80;;;;;;;1.71;90.52;99283.91;124280;1144;23489;-61
2021/01/07 06:12:15;;;;;;;19.90;11.93;;;;;;;1.72;89.81;99291.75;124527;1144;22681;-61
2021/01/07 06:14:43;;;;;;;19.35;11.55;;;;;;;1.74;89.29;99286.15;124428;1144;22773;-61
2021/01/07 06:17:11;;;;;;;14.47;9.40;;;;;;;1.76;90.19;99281.41;124408;1145;23255;-61
2021/01/07 06:19:42;;;;;;;13.47;9.40;;;;;;;1.75;89.94;99282.44;124327;1144;22717;-61
2021/01/07 06:22:11;;;;;;;14.80;9.85;;;;;;;1.75;89.97;99293.17;124596;1142;22762;-61
2021/01/07 06:24:39;;;;;;;15.17;10.30;;;;;;;1.75;90.19;99291.32;124515;1144;22713;-61
2021/01/07 06:27:29;;;;;;;14.10;10.37;;;;;;;1.76;90.42;99294.83;124546;1144;22716;-61
2021/01/07 06:30:17;;;;;;;13.60;9.90;;;;;;;1.78;90.13;99301.66;124414;1144;26940;-61
2021/01/07 06:32:45;;;;;;;15.20;10.35;;;;;;;1.80;89.78;99292.56;124527;1144;22682;-61
2021/01/07 06:35:14;;;;;;;13.73;9.33;;;;;;;1.82;90.49;99293.19;124335;1145;22783;-61
2021/01/07 06:37:43;;;;;;;17.63;9.03;;;;;;;1.84;89.92;99288.44;124634;1144;22699;-61
2021/01/07 06:40:12;;;;;;;13.30;9.35;;;;;;;1.85;90.60;99277.49;124238;1144;22656;-61
2021/01/07 06:42:40;;;;;;;14.50;10.20;;;;;;;1.86;90.33;99276.46;124556;1145;22803;-61
2021/01/07 06:45:11;;;;;;;14.65;10.35;;;;;;;1.84;90.69;99270.47;124310;1145;22737;-61
2021/01/07 06:47:39;;;;;;;15.55;10.45;;;;;;;1.84;90.74;99273.16;124518;1142;22702;-61
2021/01/07 06:50:09;;;;;;;16.63;11.30;;;;;;;1.83;89.94;99271.50;124443;1144;22698;-61
2021/01/07 06:52:41;;;;;;;19.25;12.30;;;;;;;1.86;90.96;99275.63;124561;1144;22682;-61
2021/01/07 06:55:12;;;;;;;21.60;12.53;;;;;;;1.87;89.96;99278.11;124381;1144;22764;-61
2021/01/07 06:57:43;;;;;;;21.23;13.83;;;;;;;1.88;90.33;99273.54;124569;1144;22780;-61
2021/01/07 07:00:15;;;;;;;25.03;15.20;;;;;;;1.88;90.52;99268.16;124331;1144;22665;-61
2021/01/07 07:02:58;;;;;;;26.30;15.53;;;;;;;1.89;90.74;99272.51;124602;1144;22686;-61
2021/01/07 07:05:26;;;;;;;28.90;15.95;;;;;;;1.90;90.35;99268.78;124483;1144;22691;-62
2021/01/07 07:08:09;;;;;;;28.10;17.00;;;;;;;1.92;90.17;99272.92;124598;1144;23293;-61
2021/01/07 07:10:37;;;;;;;31.30;16.80;;;;;;;1.92;90.65;99264.03;124479;1144;23228;-61
2021/01/07 07:13:17;;;;;;;36.63;19.20;;;;;;;1.93;90.70;99269.20;124478;1144;22641;-61
2021/01/07 07:15:45;;;;;;;41.13;19.23;;;;;;;1.95;90.47;99263.63;124626;1144;22702;-61
2021/01/07 07:18:23;;;;;;;40.70;20.00;;;;;;;1.95;90.67;99267.14;124440;1144;23283;-61
2021/01/07 07:20:51;;;;;;;41.70;19.50;;;;;;;1.98;90.42;99258.67;124429;1144;22770;-60
2021/01/07 07:23:19;;;;;;;48.30;20.55;;;;;;;1.99;90.70;99240.69;124197;1145;22749;-61
2021/01/07 07:25:55;;;;;;;44.40;21.20;;;;;;;2.00;90.09;99239.66;124473;1144;22698;-61
2021/01/07 07:28:26;;;;;;;47.37;22.60;;;;;;;2.01;90.57;99239.45;124432;1144;22807;-60
2021/01/07 07:30:53;;;;;;;50.43;23.97;;;;;;;2.03;90.72;99234.67;124556;1144;22708;-61
2021/01/07 07:33:34;;;;;;;44.43;21.50;;;;;;;2.02;90.87;99222.27;124579;1143;22708;-61
2021/01/07 07:36:06;;;;;;;48.43;22.20;;;;;;;2.03;90.63;99218.55;124697;1142;22764;-61
2021/01/07 07:38:39;;;;;;;49.07;24.33;;;;;;;2.04;90.10;99214.00;124488;1143;22756;-61
2021/01/07 07:41:09;;;;;;;45.27;22.50;;;;;;;2.04;90.69;99217.51;124512;1144;22665;-61
2021/01/07 07:43:37;;;;;;;45.87;21.33;;;;;;;2.04;90.54;99208.63;124417;1143;22696;-61
2021/01/07 07:46:05;;;;;;;44.17;20.20;;;;;;;2.06;90.40;99201.18;124664;1144;22669;-61
2021/01/07 07:48:38;;;;;;;40.50;20.03;;;;;;;2.07;90.87;99208.20;124437;1144;22685;-61
2021/01/07 07:51:10;;;;;;;40.30;20.20;;;;;;;2.07;90.51;99202.83;124679;1143;22657;-60
2021/01/07 07:53:38;;;;;;;41.37;22.63;;;;;;;2.09;90.35;99203.45;124340;1144;22678;-60
2021/01/07 07:56:05;;;;;;;34.30;19.65;;;;;;;2.09;90.50;99190.84;124426;1144;22749;-60
2021/01/07 07:58:33;;;;;;;32.10;16.60;;;;;;;2.11;90.50;99188.78;124352;1144;22712;-60
2021/01/07 08:01:00;;;;;;;24.83;14.83;;;;;;;2.12;90.12;99189.60;124678;1143;24032;-60
2021/01/07 08:03:31;;;;;;;27.43;15.40;;;;;;;2.11;90.49;99191.46;124432;1144;22673;-60
2021/01/07 08:05:59;;;;;;;29.55;16.45;;;;;;;2.12;90.59;99184.23;124491;1144;22905;-60
2021/01/07 08:08:30;;;;;;;24.03;15.00;;;;;;;2.13;90.86;99180.50;124435;1144;22704;-60
2021/01/07 08:10:59;;;;;;;21.43;13.97;;;;;;;2.14;89.96;99176.78;124547;1144;22666;-60
2021/01/07 08:13:27;;;;;;;25.17;13.33;;;;;;;2.16;91.18;99173.89;124481;1142;22719;-60
2021/01/07 08:15:56;;;;;;;21.70;13.90;;;;;;;2.15;90.91;99164.17;123101;1145;22893;-59
2021/01/07 08:18:24;;;;;;;31.90;15.30;;;;;;;;;;124471;1142;23545;-60
2021/01/07 08:20:54;;;;;;;22.23;12.93;;;;;;;2.06;90.90;99144.75;124607;1144;23507;-59
2021/01/07 08:23:22;;;;;;;27.70;14.60;;;;;;;2.10;90.73;99154.05;124462;1144;22726;-59
2021/01/07 08:25:52;;;;;;;29.10;12.20;;;;;;;2.18;90.26;99159.17;124477;1143;22765;-60
2021/01/07 08:28:25;;;;;;;21.73;12.13;;;;;;;2.18;90.68;99156.48;124578;1144;23365;-59
2021/01/07 08:30:57;;;;;;;19.30;11.70;;;;;;;2.20;90.38;99157.10;124353;1144;22705;-59
2021/01/07 08:33:24;;;;;;;18.80;12.25;;;;;;;2.22;90.96;99157.72;124532;1144;23712;-59
2021/01/07 08:35:51;;;;;;;17.93;11.37;;;;;;;2.23;90.35;99151.30;124311;1145;22711;-59
2021/01/07 08:38:26;;;;;;;19.05;11.50;;;;;;;2.25;90.83;99151.09;124562;1144;22683;-60
2021/01/07 08:40:56;;;;;;;16.40;11.00;;;;;;;2.27;90.41;99136.41;124367;1144;22688;-60
2021/01/07 08:43:23;;;;;;;20.30;12.13;;;;;;;2.27;90.76;99138.27;124514;1144;22664;-60
2021/01/07 08:45:51;;;;;;;19.80;11.70;;;;;;;2.29;90.87;99126.27;122973;1146;27196;-59
2021/01/07 08:48:20;;;;;;;18.43;12.10;;;;;;;2.29;90.45;99133.52;119840;1146;23447;-59
2021/01/07 08:50:47;;;;;;;17.80;11.80;;;;;;;2.31;90.56;99120.69;124416;1144;22788;-60
2021/01/07 08:53:15;;;;;;;19.23;11.87;;;;;;;2.31;91.02;99118.80;124696;1143;22680;-59
2021/01/07 08:55:52;;;;;;;17.45;12.00;;;;;;;2.33;91.27;99114.03;124338;1145;22699;-61
2021/01/07 08:58:26;;;;;;;15.98;10.98;;;;;;;2.36;90.70;99104.72;124481;1145;23782;-61
2021/01/07 09:00:53;;;;;;;17.80;11.10;;;;;;;2.37;90.79;99106.38;124271;1145;24028;-62
2021/01/07 09:03:21;;;;;;;16.55;12.40;;;;;;;2.39;90.61;99105.12;124664;1144;22725;-60
2021/01/07 09:05:49;;;;;;;17.65;11.90;;;;;;;2.40;90.62;99087.13;124346;1146;22756;-61
2021/01/07 09:08:17;;;;;;;20.30;13.55;;;;;;;2.38;90.46;99090.03;124472;1145;22797;-61
2021/01/07 09:10:45;;;;;;;18.63;12.40;;;;;;;2.39;90.64;99093.55;124222;1145;24217;-62
2021/01/07 09:13:16;;;;;;;21.67;12.77;;;;;;;2.37;91.10;99080.31;124405;1145;22709;-59
2021/01/07 09:15:43;;;;;;;16.50;11.37;;;;;;;2.39;90.81;99080.10;123294;1145;26386;-59
2021/01/07 09:18:11;;;;;;;21.60;13.85;;;;;;;2.41;90.52;99073.47;119848;1146;26386;-61
2021/01/07 09:20:38;;;;;;;23.95;14.80;;;;;;;2.42;90.73;99067.06;119763;1146;22930;-62
2021/01/07 09:23:07;;;;;;;20.37;12.03;;;;;;;2.44;90.80;99062.30;119889;1147;22936;-61
2021/01/07 09:25:34;;;;;;;15.70;11.07;;;;;;;2.46;90.62;99052.12;124385;1146;22749;-62
2021/01/07 09:28:02;;;;;;;17.33;10.37;;;;;;;2.45;90.44;99045.09;124253;1144;22680;-62
2021/01/07 09:30:30;;;;;;;16.67;10.77;;;;;;;2.47;90.81;99047.56;124505;1144;22698;-61
2021/01/07 09:32:58;;;;;;;16.97;11.40;;;;;;;2.49;90.91;99038.25;124198;1144;22794;-61
2021/01/07 09:35:25;;;;;;;16.43;10.50;;;;;;;2.52;91.09;99028.10;124452;1144;22657;-60
2021/01/07 09:38:01;;;;;;;15.10;9.87;;;;;;;2.54;91.12;99023.33;124212;1145;22815;-61
2021/01/07 09:40:29;;;;;;;16.80;10.80;;;;;;;2.57;91.55;99012.15;124452;1144;23457;-60
2021/01/07 09:42:57;;;;;;;14.70;9.35;;;;;;;2.58;90.64;99009.24;124258;1144;22742;-60
2021/01/07 09:45:24;;;;;;;16.40;9.87;;;;;;;2.62;90.86;98996.98;123996;1144;23804;-60
2021/01/07 09:47:51;;;;;;;18.65;10.40;;;;;;;2.64;90.80;98989.52;119755;1147;22925;-60
2021/01/07 09:50:20;;;;;;;16.53;9.93;;;;;;;2.64;90.76;98986.83;124351;1145;22853;-60
2021/01/07 09:52:47;;;;;;;15.80;9.45;;;;;;;2.66;90.42;98982.06;124228;1144;22709;-60
2021/01/07 09:55:15;;;;;;;15.33;9.43;;;;;;;2.67;91.17;98977.50;124445;1144;22735;-60
2021/01/07 09:57:48;;;;;;;16.67;10.50;;;;;;;2.69;90.84;98980.80;124315;1144;22697;-61
2021/01/07 10:00:16;;;;;;;23.05;12.30;;;;;;;2.70;90.34;98975.20;124432;1144;22683;-61
2021/01/07 10:02:43;;;;;;;16.10;9.95;;;;;;;2.73;90.58;98977.46;124382;1144;22673;-62
2021/01/07 10:05:12;;;;;;;14.60;9.53;;;;;;;2.75;90.18;98963.77;124481;1144;22710;-63
2021/01/07 10:07:39;;;;;;;18.83;11.10;;;;;;;2.75;90.96;98959.20;124202;1145;22836;-62
2021/01/07 10:10:08;;;;;;;16.90;11.60;;;;;;;2.78;90.66;98956.08;124431;1146;22694;-62
2021/01/07 10:12:35;;;;;;;17.90;11.30;;;;;;;2.80;91.04;98950.48;124405;1144;22703;-61
2021/01/07 10:15:03;;;;;;;12.70;7.75;;;;;;;2.82;90.83;98946.53;124339;1144;22698;-62
2021/01/07 10:17:35;;;;;;;11.73;7.80;;;;;;;2.85;90.43;98939.89;124396;1144;23504;-62
2021/01/07 10:20:05;;;;;;;10.85;7.40;;;;;;;2.83;90.47;98934.73;124339;1144;22687;-62
2021/01/07 10:22:34;;;;;;;10.15;6.75;;;;;;;2.80;90.91;98927.09;124429;1144;22765;-62
2021/01/07 10:25:02;;;;;;;11.37;6.67;;;;;;;2.79;90.32;98916.55;124198;1144;22697;-62
2021/01/07 10:27:29;;;;;;;10.63;6.67;;;;;;;2.77;90.14;98914.08;124363;1146;22736;-61
2021/01/07 10:29:58;;;;;;;10.90;6.93;;;;;;;2.77;90.32;98908.70;124289;1144;22684;-61
2021/01/07 10:32:25;;;;;;;9.45;6.00;;;;;;;2.76;90.68;98898.16;124453;1144;22740;-62
2021/01/07 10:34:52;;;;;;;13.33;6.20;;;;;;;2.75;90.18;98894.66;124205;1144;22701;-61
2021/01/07 10:37:21;;;;;;;10.97;6.87;;;;;;;2.78;90.52;98882.63;124448;1144;22701;-61
2021/01/07 10:39:50;;;;;;;9.07;6.17;;;;;;;2.78;90.04;98883.45;124284;1144;23527;-61
2021/01/07 10:42:18;;;;;;;7.47;5.03;;;;;;;2.82;90.63;98881.14;124437;1144;22674;-62
2021/01/07 10:44:46;;;;;;;8.65;5.95;;;;;;;2.84;90.47;98879.06;124361;1144;22762;-62
2021/01/07 10:47:14;;;;;;;8.65;6.20;;;;;;;2.86;90.61;98868.90;124456;1145;22694;-62
2021/01/07 10:49:42;;;;;;;10.00;6.25;;;;;;;2.88;90.62;98866.81;124338;1144;23572;-62
2021/01/07 10:52:26;;;;;;;8.67;5.87;;;;;;;2.88;90.68;98861.43;124465;1144;24553;-62
2021/01/07 10:55:18;;;;;;;10.30;7.20;;;;;;;2.90;90.45;98853.93;124324;1144;23853;-62
2021/01/07 10:58:25;;;;;;;13.15;9.40;;;;;;;2.92;91.18;98851.84;124434;1144;22682;-62
2021/01/07 11:01:20;;;;;;;11.55;7.45;;;;;;;2.95;91.00;98855.95;124334;1145;22682;-62
2021/01/07 11:03:54;;;;;;;14.65;9.35;;;;;;;2.96;90.41;98842.28;124500;1145;23298;-62
2021/01/07 11:06:22;;;;;;;13.90;10.40;;;;;;;2.97;90.49;98837.72;124430;1144;22803;-62
2021/01/07 11:08:57;;;;;;;11.13;9.50;;;;;;;2.98;90.31;98836.67;124607;1144;22740;-62
2021/01/07 11:11:28;;;;;;;17.97;13.00;;;;;;;3.01;90.56;98828.16;124271;1144;22677;-66
2021/01/07 11:13:57;;;;;;;10.85;7.50;;;;;;;3.03;90.00;98824.17;124523;1146;22659;-62
2021/01/07 11:16:36;;;;;;;9.65;6.55;;;;;;;3.05;90.50;98813.18;124380;1144;22681;-62
2021/01/07 11:19:07;;;;;;;15.55;8.65;;;;;;;3.05;90.63;98808.62;124516;1145;23296;-62
2021/01/07 11:21:48;;;;;;;36.55;12.65;;;;;;;3.06;90.30;98799.50;124235;1145;22641;-62
2021/01/07 11:24:16;;;;;;;17.25;9.85;;;;;;;3.07;90.38;98797.63;124422;1144;22665;-62
2021/01/07 11:26:44;;;;;;;15.75;12.50;;;;;;;3.07;90.25;98800.33;124436;1144;23262;-62
2021/01/07 11:29:11;;;;;;;12.55;9.65;;;;;;;3.08;89.80;98792.03;124528;1144;22815;-62
2021/01/07 11:31:57;;;;;;;16.75;11.75;;;;;;;3.07;90.47;98776.92;124397;1145;22632;-62